createdAt,value
2022-08-29T00:00:51.479Z,18.35
2022-08-29T00:03:18.322Z,18.30
2022-08-29T00:05:44.925Z,18.24
2022-08-29T00:08:17.313Z,18.29
2022-08-29T00:10:43.781Z,18.29
2022-08-29T00:13:11.976Z,18.28
2022-08-29T00:15:44.745Z,18.21
2022-08-29T00:18:11.972Z,18.13
2022-08-29T00:20:39.105Z,18.00
2022-08-29T00:23:06.601Z,17.96
2022-08-29T00:25:33.290Z,17.79
2022-08-29T00:28:00.155Z,17.66
2022-08-29T00:30:27.154Z,17.56
2022-08-29T00:32:53.963Z,17.52
2022-08-29T00:35:33.771Z,17.45
2022-08-29T00:38:01.455Z,17.38
2022-08-29T00:40:34.549Z,17.23
2022-08-29T00:43:04.498Z,17.21
2022-08-29T00:45:32.412Z,17.12
2022-08-29T00:48:08.624Z,17.05
2022-08-29T00:50:54.832Z,17.03
2022-08-29T00:53:33.008Z,16.92
2022-08-29T00:56:02.656Z,16.89
2022-08-29T00:58:37.146Z,16.82
2022-08-29T01:01:06.675Z,16.78
2022-08-29T01:03:42.674Z,16.77
2022-08-29T01:06:10.629Z,16.75
2022-08-29T01:08:37.249Z,16.76
2022-08-29T01:11:23.208Z,16.76
2022-08-29T01:13:51.402Z,16.68
2022-08-29T01:16:19.237Z,16.73
2022-08-29T01:18:48.822Z,16.75
2022-08-29T01:21:34.472Z,16.73
2022-08-29T01:24:16.203Z,16.67
2022-08-29T01:26:46.789Z,16.59
2022-08-29T01:29:14.521Z,16.65
2022-08-29T01:31:57.229Z,16.65
2022-08-29T01:34:28.691Z,16.67
2022-08-29T01:37:06.764Z,16.60
2022-08-29T01:39:36.617Z,16.65
2022-08-29T01:42:13.040Z,16.67
2022-08-29T01:44:40.964Z,16.68
2022-08-29T01:47:11.312Z,16.58
2022-08-29T01:49:40.886Z,16.56
2022-08-29T01:52:08.055Z,16.54
2022-08-29T01:54:34.958Z,16.53
2022-08-29T01:57:12.309Z,16.60
2022-08-29T01:59:44.851Z,16.59
2022-08-29T02:02:18.059Z,16.59
2022-08-29T02:04:47.053Z,16.65
2022-08-29T02:07:20.668Z,16.57
2022-08-29T02:09:47.546Z,16.49
2022-08-29T02:12:15.680Z,16.47
2022-08-29T02:14:43.297Z,16.51
2022-08-29T02:17:10.037Z,16.49
2022-08-29T02:19:37.985Z,16.50
2022-08-29T02:22:06.589Z,16.50
2022-08-29T02:24:33.410Z,16.52
2022-08-29T02:27:00.387Z,16.53
2022-08-29T02:29:37.056Z,16.55
2022-08-29T02:32:10.897Z,16.40
2022-08-29T02:34:39.969Z,16.42
2022-08-29T02:37:13.419Z,16.36
2022-08-29T02:39:39.897Z,16.28
2022-08-29T02:42:06.488Z,16.31
2022-08-29T02:44:33.077Z,16.35
2022-08-29T02:46:59.611Z,16.38
2022-08-29T02:49:28.451Z,16.40
2022-08-29T02:52:02.414Z,16.40
2022-08-29T02:54:28.864Z,16.35
2022-08-29T02:56:55.331Z,16.27
2022-08-29T02:59:21.750Z,16.28
2022-08-29T03:01:48.166Z,16.26
2022-08-29T03:04:14.607Z,16.28
2022-08-29T03:06:43.325Z,16.23
2022-08-29T03:09:09.805Z,16.20
2022-08-29T03:11:36.254Z,16.14
2022-08-29T03:14:02.895Z,16.02
2022-08-29T03:16:29.431Z,16.02
2022-08-29T03:18:55.886Z,15.97
2022-08-29T03:21:24.967Z,15.93
2022-08-29T03:23:53.199Z,16.03
2022-08-29T03:26:23.619Z,15.94
2022-08-29T03:28:50.098Z,15.86
2022-08-29T03:31:19.546Z,15.87
2022-08-29T03:33:48.489Z,15.88
2022-08-29T03:36:15.098Z,15.86
2022-08-29T03:38:47.134Z,15.82
2022-08-29T03:41:19.829Z,15.85
2022-08-29T03:43:46.654Z,15.84
2022-08-29T03:46:13.125Z,15.83
2022-08-29T03:48:41.965Z,15.82
2022-08-29T03:51:09.111Z,15.87
2022-08-29T03:53:35.544Z,15.89
2022-08-29T03:56:06.106Z,15.86
2022-08-29T03:58:33.395Z,15.81
2022-08-29T04:01:00.786Z,15.75
2022-08-29T04:03:31.150Z,15.76
2022-08-29T04:05:59.149Z,15.67
2022-08-29T04:08:25.613Z,15.70
2022-08-29T04:10:52.063Z,15.67
2022-08-29T04:13:18.633Z,15.66
2022-08-29T04:15:45.147Z,15.62
2022-08-29T04:18:11.956Z,15.61
2022-08-29T04:20:41.673Z,15.57
2022-08-29T04:23:08.629Z,15.57
2022-08-29T04:25:38.008Z,15.46
2022-08-29T04:28:10.158Z,15.42
2022-08-29T04:30:39.986Z,15.46
2022-08-29T04:33:06.845Z,15.46
2022-08-29T04:35:34.870Z,15.50
2022-08-29T04:38:01.712Z,15.48
2022-08-29T04:40:28.161Z,15.50
2022-08-29T04:42:54.757Z,15.55
2022-08-29T04:45:22.777Z,15.55
2022-08-29T04:47:51.810Z,15.56
2022-08-29T04:50:21.589Z,15.58
2022-08-29T04:52:52.263Z,15.51
2022-08-29T04:55:22.607Z,15.54
2022-08-29T04:57:56.478Z,15.55
2022-08-29T05:00:27.530Z,15.56
2022-08-29T05:02:54.400Z,15.58
2022-08-29T05:05:23.290Z,15.65
2022-08-29T05:07:49.718Z,15.66
2022-08-29T05:10:20.610Z,15.68
2022-08-29T05:12:48.103Z,15.66
2022-08-29T05:15:18.591Z,15.72
2022-08-29T05:17:45.215Z,15.61
2022-08-29T05:20:13.016Z,15.70
2022-08-29T05:22:40.900Z,15.74
2022-08-29T05:25:07.907Z,15.76
2022-08-29T05:27:34.382Z,15.78
2022-08-29T05:30:01.683Z,15.83
2022-08-29T05:32:30.692Z,15.85
2022-08-29T05:34:57.981Z,15.90
2022-08-29T05:37:24.929Z,15.92
2022-08-29T05:39:51.446Z,15.97
2022-08-29T05:42:20.440Z,16.03
2022-08-29T05:44:47.195Z,16.04
2022-08-29T05:47:17.710Z,16.12
2022-08-29T05:49:45.457Z,16.20
2022-08-29T05:52:13.857Z,16.27
2022-08-29T05:54:44.759Z,16.33
2022-08-29T05:57:18.757Z,16.46
2022-08-29T05:59:49.207Z,16.48
2022-08-29T06:02:16.922Z,16.60
2022-08-29T06:04:43.501Z,16.63
2022-08-29T06:07:10.977Z,16.69
2022-08-29T06:09:38.705Z,16.80
2022-08-29T06:12:06.021Z,16.83
2022-08-29T06:14:32.630Z,16.96
2022-08-29T06:16:59.470Z,17.10
2022-08-29T06:19:26.056Z,17.21
2022-08-29T06:21:57.222Z,17.41
2022-08-29T06:24:23.687Z,17.53
2022-08-29T06:26:52.410Z,17.70
2022-08-29T06:29:18.883Z,17.80
2022-08-29T06:31:45.337Z,17.96
2022-08-29T06:34:11.776Z,18.09
2022-08-29T06:36:42.081Z,18.22
2022-08-29T06:39:10.670Z,18.25
2022-08-29T06:41:39.112Z,18.47
2022-08-29T06:44:05.804Z,18.45
2022-08-29T06:46:37.172Z,18.76
2022-08-29T06:49:05.874Z,18.92
2022-08-29T06:51:35.753Z,18.98
2022-08-29T06:54:04.717Z,19.02
2022-08-29T06:56:37.343Z,19.14
2022-08-29T06:59:04.919Z,19.38
2022-08-29T07:01:31.826Z,19.34
2022-08-29T07:04:00.327Z,19.48
2022-08-29T07:06:30.358Z,19.78
2022-08-29T07:08:57.664Z,19.76
2022-08-29T07:11:25.941Z,19.75
2022-08-29T07:13:52.972Z,19.98
2022-08-29T07:16:26.343Z,20.27
2022-08-29T07:18:53.435Z,20.46
2022-08-29T07:21:24.794Z,20.49
2022-08-29T07:23:52.938Z,20.84
2022-08-29T07:26:23.361Z,20.67
2022-08-29T07:28:54.497Z,20.83
2022-08-29T07:31:20.978Z,20.50
2022-08-29T07:33:48.063Z,20.86
2022-08-29T07:36:20.933Z,21.31
2022-08-29T07:38:47.634Z,20.97
2022-08-29T07:41:14.682Z,21.11
2022-08-29T07:43:42.199Z,21.45
2022-08-29T07:46:15.640Z,21.50
2022-08-29T07:48:43.636Z,21.64
2022-08-29T07:51:18.167Z,21.81
2022-08-29T07:53:45.519Z,22.11
2022-08-29T07:56:15.346Z,22.20
2022-08-29T07:58:42.829Z,22.32
2022-08-29T08:01:09.792Z,22.01
2022-08-29T08:03:42.599Z,21.97
2022-08-29T08:06:10.345Z,21.99
2022-08-29T08:08:39.335Z,21.48
2022-08-29T08:11:07.433Z,22.12
2022-08-29T08:13:35.879Z,22.31
2022-08-29T08:16:13.169Z,22.49
2022-08-29T08:18:42.047Z,22.61
2022-08-29T08:21:09.751Z,22.79
2022-08-29T08:23:36.662Z,22.71
2022-08-29T08:26:03.518Z,22.72
2022-08-29T08:28:34.768Z,22.43
2022-08-29T08:31:05.830Z,22.92
2022-08-29T08:33:35.031Z,23.15
2022-08-29T08:36:04.282Z,23.18
2022-08-29T08:38:31.437Z,23.03
2022-08-29T08:41:07.638Z,22.98
2022-08-29T08:43:43.415Z,22.95
2022-08-29T08:46:10.087Z,23.23
2022-08-29T08:48:42.010Z,23.55
2022-08-29T08:51:21.918Z,23.69
2022-08-29T08:53:52.391Z,23.22
2022-08-29T08:56:40.307Z,23.13
2022-08-29T08:59:22.156Z,23.24
2022-08-29T09:02:26.835Z,23.48
2022-08-29T09:05:03.165Z,23.79
2022-08-29T09:07:44.279Z,24.03
2022-08-29T09:10:25.934Z,23.54
2022-08-29T09:13:14.990Z,23.92
2022-08-29T09:15:47.281Z,24.03
2022-08-29T09:18:24.040Z,24.15
2022-08-29T09:20:54.176Z,23.99
2022-08-29T09:23:49.876Z,24.29
2022-08-29T09:26:18.817Z,24.55
2022-08-29T09:28:45.345Z,24.68
2022-08-29T09:31:24.460Z,24.76
2022-08-29T09:34:03.951Z,24.83
2022-08-29T09:36:41.864Z,24.98
2022-08-29T09:39:11.355Z,24.93
2022-08-29T09:41:38.657Z,24.82
2022-08-29T09:44:09.424Z,24.60
2022-08-29T09:46:35.921Z,24.93
2022-08-29T09:49:04.427Z,25.01
2022-08-29T09:51:35.893Z,25.57
2022-08-29T09:54:21.086Z,25.58
2022-08-29T09:57:05.328Z,25.43
2022-08-29T09:59:44.715Z,25.35
2022-08-29T10:02:22.206Z,25.24
2022-08-29T10:05:01.391Z,25.24
2022-08-29T10:07:37.474Z,24.81
2022-08-29T10:10:19.951Z,25.14
2022-08-29T10:13:08.227Z,25.39
2022-08-29T10:16:17.848Z,25.04
2022-08-29T10:18:52.282Z,25.22
2022-08-29T10:21:37.207Z,25.64
2022-08-29T10:24:19.923Z,25.83
2022-08-29T10:26:52.069Z,26.00
2022-08-29T10:29:55.946Z,25.94
2022-08-29T10:32:42.572Z,26.21
2022-08-29T10:35:14.828Z,26.11
2022-08-29T10:37:49.609Z,26.12
2022-08-29T10:40:28.451Z,26.34
2022-08-29T10:43:18.472Z,26.07
2022-08-29T10:46:17.619Z,26.31
2022-08-29T10:49:09.211Z,26.36
2022-08-29T10:52:01.435Z,26.63
2022-08-29T10:54:37.435Z,26.76
2022-08-29T10:57:09.751Z,26.54
2022-08-29T11:00:04.567Z,26.65
2022-08-29T11:02:44.087Z,26.60
2022-08-29T11:05:16.283Z,26.53
2022-08-29T11:07:48.823Z,26.69
2022-08-29T11:10:24.800Z,27.08
2022-08-29T11:12:58.921Z,27.17
2022-08-29T11:15:56.165Z,26.95
2022-08-29T11:18:39.620Z,26.98
2022-08-29T11:21:26.050Z,26.99
2022-08-29T11:23:54.043Z,26.84
2022-08-29T11:26:44.825Z,26.98
2022-08-29T11:29:32.076Z,27.15
2022-08-29T11:32:07.617Z,27.43
2022-08-29T11:34:55.187Z,27.51
2022-08-29T11:37:49.607Z,27.47
2022-08-29T11:41:26.387Z,27.47
2022-08-29T11:43:42.114Z,27.14
2022-08-29T11:46:11.549Z,27.08
2022-08-29T11:48:55.774Z,27.46
2022-08-29T11:51:35.964Z,27.59
2022-08-29T11:54:25.556Z,27.62
2022-08-29T11:57:01.688Z,27.77
2022-08-29T11:59:50.666Z,28.03
2022-08-29T12:02:32.361Z,27.70
2022-08-29T12:05:08.796Z,27.77
2022-08-29T12:08:35.637Z,28.34
2022-08-29T12:10:57.983Z,28.54
2022-08-29T12:13:46.509Z,28.36
2022-08-29T12:16:23.320Z,28.46
2022-08-29T12:18:55.038Z,28.43
2022-08-29T12:21:45.747Z,28.54
2022-08-29T12:24:42.995Z,28.59
2022-08-29T12:27:24.634Z,28.50
2022-08-29T12:29:52.514Z,28.64
2022-08-29T12:32:42.002Z,28.87
2022-08-29T12:35:23.206Z,28.70
2022-08-29T12:38:28.442Z,29.04
2022-08-29T12:41:05.555Z,29.09
2022-08-29T12:43:36.684Z,28.51
2022-08-29T12:46:11.193Z,28.69
2022-08-29T12:48:53.419Z,28.70
2022-08-29T12:51:35.010Z,28.68
2022-08-29T12:54:01.714Z,28.87
2022-08-29T12:56:32.223Z,28.63
2022-08-29T12:59:01.144Z,28.76
2022-08-29T13:01:39.150Z,28.69
2022-08-29T13:04:14.795Z,28.50
2022-08-29T13:07:02.027Z,28.68
2022-08-29T13:09:45.252Z,28.67
2022-08-29T13:12:21.138Z,28.54
2022-08-29T13:14:53.459Z,28.41
2022-08-29T13:17:24.105Z,28.53
2022-08-29T13:20:27.959Z,28.65
2022-08-29T13:23:17.011Z,28.57
2022-08-29T13:25:57.350Z,28.52
2022-08-29T13:28:56.055Z,28.39
2022-08-29T13:31:26.340Z,28.55
2022-08-29T13:33:56.352Z,28.47
2022-08-29T13:36:49.624Z,28.54
2022-08-29T13:39:25.380Z,28.90
2022-08-29T13:42:01.112Z,28.91
2022-08-29T13:44:33.739Z,28.44
2022-08-29T13:47:04.327Z,28.47
2022-08-29T13:49:35.829Z,28.56
2022-08-29T13:52:02.930Z,28.37
2022-08-29T13:54:31.114Z,28.31
2022-08-29T13:56:58.747Z,28.41
2022-08-29T13:59:36.077Z,28.46
2022-08-29T14:02:10.968Z,28.68
2022-08-29T14:04:39.874Z,28.49
2022-08-29T14:07:09.470Z,28.43
2022-08-29T14:09:43.039Z,28.44
2022-08-29T14:12:10.202Z,28.47
2022-08-29T14:14:39.708Z,28.45
2022-08-29T14:17:06.330Z,28.43
2022-08-29T14:19:32.819Z,28.28
2022-08-29T14:22:00.445Z,28.30
2022-08-29T14:24:34.280Z,28.42
2022-08-29T14:27:02.688Z,28.33
2022-08-29T14:29:36.235Z,28.31
2022-08-29T14:32:03.527Z,28.18
2022-08-29T14:34:32.458Z,28.13
2022-08-29T14:36:59.266Z,28.05
2022-08-29T14:39:27.792Z,27.98
2022-08-29T14:41:55.255Z,27.94
2022-08-29T14:44:24.821Z,28.07
2022-08-29T14:46:51.644Z,28.10
2022-08-29T14:49:21.304Z,27.94
2022-08-29T14:51:47.817Z,27.88
2022-08-29T14:54:16.656Z,27.82
2022-08-29T14:56:48.733Z,27.76
2022-08-29T14:59:16.622Z,27.78
2022-08-29T15:01:43.161Z,27.78
2022-08-29T15:04:09.890Z,27.89
2022-08-29T15:06:41.025Z,27.78
2022-08-29T15:09:07.636Z,27.67
2022-08-29T15:11:34.118Z,27.70
2022-08-29T15:14:04.683Z,27.72
2022-08-29T15:16:31.924Z,27.64
2022-08-29T15:19:40.617Z,27.61
2022-08-29T15:21:44.988Z,27.62
2022-08-29T15:24:11.518Z,27.59
2022-08-29T15:26:43.817Z,27.72
2022-08-29T15:29:12.810Z,27.69
2022-08-29T15:31:39.245Z,27.67
2022-08-29T15:34:08.154Z,27.70
2022-08-29T15:36:35.753Z,27.65
2022-08-29T15:39:05.733Z,27.68
2022-08-29T15:41:33.041Z,27.63
2022-08-29T15:44:00.000Z,27.60
2022-08-29T15:46:29.013Z,27.64
2022-08-29T15:48:55.583Z,27.64
2022-08-29T15:51:22.239Z,27.56
2022-08-29T15:53:51.138Z,27.64
2022-08-29T15:56:17.691Z,27.60
2022-08-29T15:58:48.247Z,27.69
2022-08-29T16:01:15.021Z,27.65
2022-08-29T16:03:42.760Z,27.66
2022-08-29T16:06:10.789Z,27.60
2022-08-29T16:08:38.075Z,27.63
2022-08-29T16:11:15.297Z,27.67
2022-08-29T16:13:44.812Z,27.64
2022-08-29T16:16:11.315Z,27.65
2022-08-29T16:18:37.818Z,27.55
2022-08-29T16:21:06.965Z,27.57
2022-08-29T16:23:34.260Z,27.54
2022-08-29T16:26:00.915Z,27.50
2022-08-29T16:28:28.797Z,27.47
2022-08-29T16:31:00.254Z,27.46
2022-08-29T16:33:27.247Z,27.38
2022-08-29T16:35:53.915Z,27.37
2022-08-29T16:38:20.489Z,27.28
2022-08-29T16:40:50.251Z,27.22
2022-08-29T16:43:21.669Z,27.23
2022-08-29T16:45:48.123Z,27.22
2022-08-29T16:48:17.652Z,27.29
2022-08-29T16:50:44.637Z,27.21
2022-08-29T16:53:11.173Z,27.20
2022-08-29T16:55:37.787Z,27.19
2022-08-29T16:58:22.641Z,27.17
2022-08-29T17:00:50.010Z,27.24
2022-08-29T17:03:20.089Z,27.19
2022-08-29T17:05:46.939Z,27.23
2022-08-29T17:08:13.402Z,27.22
2022-08-29T17:10:42.690Z,27.26
2022-08-29T17:13:09.398Z,27.24
2022-08-29T17:15:38.603Z,27.22
2022-08-29T17:18:05.179Z,27.05
2022-08-29T17:20:36.855Z,26.98
2022-08-29T17:23:04.021Z,26.88
2022-08-29T17:25:33.496Z,27.00
2022-08-29T17:28:17.227Z,26.84
2022-08-29T17:30:48.789Z,26.79
2022-08-29T17:33:16.598Z,26.72
2022-08-29T17:35:43.451Z,26.64
2022-08-29T17:38:10.392Z,26.65
2022-08-29T17:40:40.437Z,26.57
2022-08-29T17:43:09.023Z,26.53
2022-08-29T17:45:37.475Z,26.43
2022-08-29T17:48:05.095Z,26.35
2022-08-29T17:50:32.847Z,26.33
2022-08-29T17:52:59.367Z,26.25
2022-08-29T17:55:29.904Z,26.27
2022-08-29T17:57:57.215Z,26.19
2022-08-29T18:00:25.072Z,26.09
2022-08-29T18:02:52.011Z,25.96
2022-08-29T18:05:23.515Z,25.89
2022-08-29T18:07:51.361Z,25.81
2022-08-29T18:10:19.518Z,25.72
2022-08-29T18:12:48.884Z,25.69
2022-08-29T18:15:15.954Z,25.64
2022-08-29T18:17:45.259Z,25.60
2022-08-29T18:20:15.598Z,25.49
2022-08-29T18:22:43.671Z,25.44
2022-08-29T18:25:11.389Z,25.43
2022-08-29T18:27:43.602Z,25.34
2022-08-29T18:30:13.520Z,25.25
2022-08-29T18:32:41.010Z,25.15
2022-08-29T18:35:10.661Z,25.08
2022-08-29T18:37:37.193Z,25.01
2022-08-29T18:40:05.387Z,24.95
2022-08-29T18:42:40.421Z,24.89
2022-08-29T18:45:09.458Z,24.81
2022-08-29T18:47:38.340Z,24.74
2022-08-29T18:50:25.243Z,24.70
2022-08-29T18:52:52.494Z,24.62
2022-08-29T18:55:19.219Z,24.56
2022-08-29T18:57:47.118Z,24.49
2022-08-29T19:00:17.898Z,24.42
2022-08-29T19:02:44.562Z,24.34
2022-08-29T19:05:13.337Z,24.30
2022-08-29T19:07:39.899Z,24.26
2022-08-29T19:10:07.453Z,24.18
2022-08-29T19:12:33.952Z,24.07
2022-08-29T19:15:00.597Z,24.03
2022-08-29T19:17:27.130Z,24.01
2022-08-29T19:20:12.351Z,23.93
2022-08-29T19:22:39.308Z,23.90
2022-08-29T19:25:08.579Z,23.88
2022-08-29T19:27:44.365Z,23.84
2022-08-29T19:30:13.813Z,23.74
2022-08-29T19:32:40.664Z,23.70
2022-08-29T19:35:13.283Z,23.68
2022-08-29T19:37:41.641Z,23.64
2022-08-29T19:40:10.359Z,23.57
2022-08-29T19:42:41.404Z,23.57
2022-08-29T19:45:10.871Z,23.52
2022-08-29T19:47:37.871Z,23.46
2022-08-29T19:50:07.509Z,23.36
2022-08-29T19:52:36.976Z,23.32
2022-08-29T19:55:08.549Z,23.28
2022-08-29T19:57:35.366Z,23.27
2022-08-29T20:00:02.008Z,23.23
2022-08-29T20:02:28.572Z,23.24
2022-08-29T20:04:55.187Z,23.24
2022-08-29T20:07:21.591Z,23.19
2022-08-29T20:09:48.833Z,23.19
2022-08-29T20:12:15.365Z,23.08
2022-08-29T20:14:41.867Z,23.02
2022-08-29T20:17:09.217Z,22.99
2022-08-29T20:19:40.809Z,22.96
2022-08-29T20:22:10.214Z,22.91
2022-08-29T20:24:37.304Z,22.85
2022-08-29T20:27:04.431Z,22.80
2022-08-29T20:32:10.197Z,22.75
2022-08-29T20:34:39.032Z,22.71
2022-08-29T20:37:14.103Z,22.67
2022-08-29T20:39:46.397Z,22.63
2022-08-29T20:42:18.022Z,22.57
2022-08-29T20:44:45.580Z,22.51
2022-08-29T20:47:19.549Z,22.50
2022-08-29T20:49:47.295Z,22.45
2022-08-29T20:52:17.533Z,22.48
2022-08-29T20:54:46.224Z,22.52
2022-08-29T20:57:15.443Z,22.50
2022-08-29T20:59:42.847Z,22.45
2022-08-29T21:02:10.252Z,22.42
2022-08-29T21:04:56.193Z,22.40
2022-08-29T21:07:23.077Z,22.33
2022-08-29T21:09:50.942Z,22.30
2022-08-29T21:12:18.734Z,22.30
2022-08-29T21:14:48.183Z,22.19
2022-08-29T21:17:18.174Z,22.14
2022-08-29T21:19:45.046Z,22.05
2022-08-29T21:22:15.645Z,22.07
2022-08-29T21:24:42.344Z,22.03
2022-08-29T21:27:13.499Z,21.97
2022-08-29T21:29:41.085Z,21.89
2022-08-29T21:32:07.534Z,21.88
2022-08-29T21:34:34.031Z,21.90
2022-08-29T21:37:00.526Z,21.85
2022-08-29T21:39:28.585Z,21.88
2022-08-29T21:42:02.468Z,21.87
2022-08-29T21:44:29.816Z,21.85
2022-08-29T21:46:56.367Z,21.81
2022-08-29T21:49:26.943Z,21.80
2022-08-29T21:51:56.510Z,21.77
2022-08-29T21:54:22.964Z,21.78
2022-08-29T21:56:53.933Z,21.78
2022-08-29T21:59:21.659Z,21.79
2022-08-29T22:01:54.651Z,21.80
2022-08-29T22:04:28.595Z,21.80
2022-08-29T22:06:59.301Z,21.84
2022-08-29T22:09:26.026Z,21.88
2022-08-29T22:11:52.599Z,21.90
2022-08-29T22:14:19.047Z,21.97
2022-08-29T22:16:45.463Z,22.02
2022-08-29T22:19:16.175Z,22.01
2022-08-29T22:21:46.089Z,22.05
2022-08-29T22:24:23.215Z,22.09
2022-08-29T22:26:49.628Z,22.10
2022-08-29T22:29:16.247Z,22.08
2022-08-29T22:31:48.314Z,22.08
2022-08-29T22:34:19.563Z,22.04
2022-08-29T22:36:50.864Z,22.02
2022-08-29T22:39:19.540Z,22.04
2022-08-29T22:41:47.719Z,22.03
2022-08-29T22:44:59.574Z,22.05
2022-08-29T22:47:04.038Z,22.13
2022-08-29T22:49:33.471Z,22.12
2022-08-29T22:52:09.421Z,22.15
2022-08-29T22:54:38.418Z,22.16
2022-08-29T22:57:10.803Z,22.11
2022-08-29T22:59:38.405Z,22.25
2022-08-29T23:02:10.934Z,22.23
2022-08-29T23:04:38.392Z,22.15
2022-08-29T23:07:06.380Z,21.98
2022-08-29T23:09:35.988Z,21.94
2022-08-29T23:12:07.346Z,21.77
2022-08-29T23:14:35.896Z,21.59
2022-08-29T23:17:04.160Z,21.46
2022-08-29T23:19:31.190Z,21.22
2022-08-29T23:21:58.218Z,21.05
2022-08-29T23:24:26.235Z,20.89
2022-08-29T23:26:54.922Z,20.76
2022-08-29T23:29:21.471Z,20.75
2022-08-29T23:31:50.575Z,20.51
2022-08-29T23:34:16.968Z,20.43
2022-08-29T23:36:43.479Z,20.25
2022-08-29T23:39:09.885Z,20.24
2022-08-29T23:41:36.410Z,20.16
2022-08-29T23:44:05.174Z,20.06
2022-08-29T23:46:31.700Z,20.01
2022-08-29T23:48:58.386Z,19.90
2022-08-29T23:51:27.792Z,19.89
2022-08-29T23:53:57.370Z,19.75
2022-08-29T23:56:24.221Z,19.65
2022-08-29T23:58:50.984Z,19.61
